New Canaan, Connecticut
Current Conditions -  °F | °C
As of 6:56 AM on Thursday 29 Jan 2015 (Local Time) from KHPN Reporting Station
Clear Clear  
Wind Chill:   Ceiling: Unl
Heat Index: 15°   Visibility: 10mi
Dew Point: -4°   Wind: 8mph
Humidity: 43%   Direction: 350°N
Pressure: 30.28"   Gusts: NA
Location:  41.15°N, 73.5°W
Report Text: KHPN 291156Z 35007KT 10SM CLR M09/M20 A3028 RMK AO2 SLP267 T10941200 11083 21117 53007
Loading
Personal Weather Stations






























Interactive Weather Map New forecast layout! Learn more

10-Day Weather Forecast

Advertisements
Track Severe Weather on mobile